sensor_id;sensor_type;location;lat;lon;timestamp;P1;durP1;ratioP1;P2;durP2;ratioP2
14903;SDS011;7543;53.148;8.234;2022-09-14T00:01:29;1.60;;;0.73;;
14903;SDS011;7543;53.148;8.234;2022-09-14T00:03:59;1.67;;;0.83;;
14903;SDS011;7543;53.148;8.234;2022-09-14T00:06:28;3.17;;;1.10;;
14903;SDS011;7543;53.148;8.234;2022-09-14T00:08:58;1.57;;;0.90;;
14903;SDS011;7543;53.148;8.234;2022-09-14T00:11:28;2.00;;;0.90;;
14903;SDS011;7543;53.148;8.234;2022-09-14T00:13:58;1.50;;;0.70;;
14903;SDS011;7543;53.148;8.234;2022-09-14T00:16:28;0.77;;;0.77;;
14903;SDS011;7543;53.148;8.234;2022-09-14T00:18:58;1.60;;;1.20;;
14903;SDS011;7543;53.148;8.234;2022-09-14T00:21:31;0.43;;;0.43;;
14903;SDS011;7543;53.148;8.234;2022-09-14T00:24:01;3.63;;;0.87;;
14903;SDS011;7543;53.148;8.234;2022-09-14T00:26:30;2.83;;;1.10;;
14903;SDS011;7543;53.148;8.234;2022-09-14T00:28:59;1.30;;;0.90;;
14903;SDS011;7543;53.148;8.234;2022-09-14T00:31:30;3.00;;;1.43;;
14903;SDS011;7543;53.148;8.234;2022-09-14T00:34:02;5.30;;;1.17;;
14903;SDS011;7543;53.148;8.234;2022-09-14T00:36:31;2.00;;;0.93;;
14903;SDS011;7543;53.148;8.234;2022-09-14T00:39:02;1.33;;;0.90;;
14903;SDS011;7543;53.148;8.234;2022-09-14T00:41:32;2.43;;;1.10;;
14903;SDS011;7543;53.148;8.234;2022-09-14T00:44:02;6.17;;;1.07;;
14903;SDS011;7543;53.148;8.234;2022-09-14T00:46:34;6.03;;;1.60;;
14903;SDS011;7543;53.148;8.234;2022-09-14T00:49:04;3.70;;;0.97;;
14903;SDS011;7543;53.148;8.234;2022-09-14T00:51:36;2.67;;;1.33;;
14903;SDS011;7543;53.148;8.234;2022-09-14T00:54:08;3.87;;;1.20;;
14903;SDS011;7543;53.148;8.234;2022-09-14T00:56:36;4.00;;;0.90;;
14903;SDS011;7543;53.148;8.234;2022-09-14T00:59:05;4.30;;;1.00;;
14903;SDS011;7543;53.148;8.234;2022-09-14T01:01:36;4.93;;;1.00;;
14903;SDS011;7543;53.148;8.234;2022-09-14T01:04:04;1.10;;;0.80;;
14903;SDS011;7543;53.148;8.234;2022-09-14T01:06:34;3.23;;;1.20;;
14903;SDS011;7543;53.148;8.234;2022-09-14T01:09:13;5.80;;;0.90;;
14903;SDS011;7543;53.148;8.234;2022-09-14T01:11:50;3.80;;;1.10;;
14903;SDS011;7543;53.148;8.234;2022-09-14T01:14:30;2.17;;;1.20;;
14903;SDS011;7543;53.148;8.234;2022-09-14T01:17:07;2.73;;;1.10;;
14903;SDS011;7543;53.148;8.234;2022-09-14T01:19:43;3.50;;;1.87;;
14903;SDS011;7543;53.148;8.234;2022-09-14T01:22:29;5.63;;;1.50;;
14903;SDS011;7543;53.148;8.234;2022-09-14T01:25:05;3.07;;;1.30;;
14903;SDS011;7543;53.148;8.234;2022-09-14T01:27:40;2.13;;;1.10;;
14903;SDS011;7543;53.148;8.234;2022-09-14T01:30:10;4.30;;;1.27;;
14903;SDS011;7543;53.148;8.234;2022-09-14T01:32:41;2.23;;;1.20;;
14903;SDS011;7543;53.148;8.234;2022-09-14T01:35:13;4.40;;;1.40;;
14903;SDS011;7543;53.148;8.234;2022-09-14T01:37:44;1.30;;;0.90;;
14903;SDS011;7543;53.148;8.234;2022-09-14T01:40:15;3.20;;;1.40;;
14903;SDS011;7543;53.148;8.234;2022-09-14T01:42:47;1.87;;;1.10;;
14903;SDS011;7543;53.148;8.234;2022-09-14T01:45:18;3.13;;;1.00;;
14903;SDS011;7543;53.148;8.234;2022-09-14T01:47:50;2.07;;;1.20;;
14903;SDS011;7543;53.148;8.234;2022-09-14T01:50:23;3.10;;;1.27;;
14903;SDS011;7543;53.148;8.234;2022-09-14T01:52:54;4.47;;;1.20;;
14903;SDS011;7543;53.148;8.234;2022-09-14T01:55:26;2.90;;;1.30;;
14903;SDS011;7543;53.148;8.234;2022-09-14T01:57:58;2.20;;;1.10;;
14903;SDS011;7543;53.148;8.234;2022-09-14T02:00:29;3.13;;;1.17;;
14903;SDS011;7543;53.148;8.234;2022-09-14T02:02:59;1.83;;;1.20;;
14903;SDS011;7543;53.148;8.234;2022-09-14T02:05:32;2.93;;;1.00;;
14903;SDS011;7543;53.148;8.234;2022-09-14T02:08:03;1.23;;;1.03;;
14903;SDS011;7543;53.148;8.234;2022-09-14T02:10:31;1.27;;;1.10;;
14903;SDS011;7543;53.148;8.234;2022-09-14T02:13:01;4.10;;;1.40;;
14903;SDS011;7543;53.148;8.234;2022-09-14T02:15:30;2.10;;;1.17;;
14903;SDS011;7543;53.148;8.234;2022-09-14T02:17:58;4.10;;;1.10;;
14903;SDS011;7543;53.148;8.234;2022-09-14T02:20:27;2.80;;;1.30;;
14903;SDS011;7543;53.148;8.234;2022-09-14T02:22:58;1.10;;;0.90;;
14903;SDS011;7543;53.148;8.234;2022-09-14T02:25:26;2.50;;;1.43;;
14903;SDS011;7543;53.148;8.234;2022-09-14T02:27:54;2.70;;;1.30;;
14903;SDS011;7543;53.148;8.234;2022-09-14T02:30:24;1.50;;;1.30;;
14903;SDS011;7543;53.148;8.234;2022-09-14T02:32:59;2.83;;;1.30;;
14903;SDS011;7543;53.148;8.234;2022-09-14T02:35:35;1.47;;;1.00;;
14903;SDS011;7543;53.148;8.234;2022-09-14T02:38:07;3.03;;;1.40;;
14903;SDS011;7543;53.148;8.234;2022-09-14T02:40:40;1.27;;;1.13;;
14903;SDS011;7543;53.148;8.234;2022-09-14T02:43:16;3.50;;;1.50;;
14903;SDS011;7543;53.148;8.234;2022-09-14T02:45:54;3.10;;;1.30;;
14903;SDS011;7543;53.148;8.234;2022-09-14T02:48:26;3.13;;;1.40;;
14903;SDS011;7543;53.148;8.234;2022-09-14T02:51:00;4.20;;;1.20;;
14903;SDS011;7543;53.148;8.234;2022-09-14T02:53:34;1.57;;;1.10;;
14903;SDS011;7543;53.148;8.234;2022-09-14T02:56:04;1.87;;;1.20;;
14903;SDS011;7543;53.148;8.234;2022-09-14T02:58:34;1.43;;;1.10;;
14903;SDS011;7543;53.148;8.234;2022-09-14T03:01:06;2.30;;;1.53;;
14903;SDS011;7543;53.148;8.234;2022-09-14T03:03:36;1.90;;;1.40;;
14903;SDS011;7543;53.148;8.234;2022-09-14T03:06:04;2.03;;;1.43;;
14903;SDS011;7543;53.148;8.234;2022-09-14T03:08:33;3.37;;;1.60;;
14903;SDS011;7543;53.148;8.234;2022-09-14T03:11:01;2.37;;;1.50;;
14903;SDS011;7543;53.148;8.234;2022-09-14T03:13:30;3.30;;;1.47;;
14903;SDS011;7543;53.148;8.234;2022-09-14T03:16:03;2.43;;;1.20;;
14903;SDS011;7543;53.148;8.234;2022-09-14T03:18:33;2.63;;;1.30;;
14903;SDS011;7543;53.148;8.234;2022-09-14T03:21:03;3.30;;;1.27;;
14903;SDS011;7543;53.148;8.234;2022-09-14T03:23:34;2.97;;;1.20;;
14903;SDS011;7543;53.148;8.234;2022-09-14T03:26:05;4.70;;;1.50;;
14903;SDS011;7543;53.148;8.234;2022-09-14T03:28:34;3.00;;;1.40;;
14903;SDS011;7543;53.148;8.234;2022-09-14T03:31:03;2.83;;;1.60;;
14903;SDS011;7543;53.148;8.234;2022-09-14T03:33:34;2.40;;;1.60;;
14903;SDS011;7543;53.148;8.234;2022-09-14T03:36:08;1.67;;;1.17;;
14903;SDS011;7543;53.148;8.234;2022-09-14T03:38:37;2.80;;;1.60;;
14903;SDS011;7543;53.148;8.234;2022-09-14T03:41:08;4.50;;;1.57;;
14903;SDS011;7543;53.148;8.234;2022-09-14T03:43:37;8.43;;;1.70;;
14903;SDS011;7543;53.148;8.234;2022-09-14T03:46:05;6.63;;;1.60;;
14903;SDS011;7543;53.148;8.234;2022-09-14T03:48:35;4.23;;;1.70;;
14903;SDS011;7543;53.148;8.234;2022-09-14T03:51:04;3.77;;;1.63;;
14903;SDS011;7543;53.148;8.234;2022-09-14T03:53:34;2.80;;;1.60;;
14903;SDS011;7543;53.148;8.234;2022-09-14T03:56:05;4.50;;;1.50;;
14903;SDS011;7543;53.148;8.234;2022-09-14T03:58:34;3.80;;;1.90;;
14903;SDS011;7543;53.148;8.234;2022-09-14T04:01:03;4.10;;;1.37;;
14903;SDS011;7543;53.148;8.234;2022-09-14T04:03:31;5.90;;;1.50;;
14903;SDS011;7543;53.148;8.234;2022-09-14T04:06:01;3.30;;;1.53;;
14903;SDS011;7543;53.148;8.234;2022-09-14T04:08:31;4.70;;;1.70;;
14903;SDS011;7543;53.148;8.234;2022-09-14T04:11:04;2.33;;;1.70;;
14903;SDS011;7543;53.148;8.234;2022-09-14T04:13:33;4.23;;;2.00;;
14903;SDS011;7543;53.148;8.234;2022-09-14T04:16:02;2.50;;;1.90;;
14903;SDS011;7543;53.148;8.234;2022-09-14T04:18:30;5.70;;;2.30;;
14903;SDS011;7543;53.148;8.234;2022-09-14T04:20:59;4.67;;;1.60;;
14903;SDS011;7543;53.148;8.234;2022-09-14T04:23:30;2.43;;;1.77;;
14903;SDS011;7543;53.148;8.234;2022-09-14T04:25:58;3.73;;;1.43;;
14903;SDS011;7543;53.148;8.234;2022-09-14T04:28:26;5.47;;;1.73;;
14903;SDS011;7543;53.148;8.234;2022-09-14T04:30:55;5.47;;;2.07;;
14903;SDS011;7543;53.148;8.234;2022-09-14T04:33:25;3.13;;;1.80;;
14903;SDS011;7543;53.148;8.234;2022-09-14T04:35:56;2.23;;;1.47;;
14903;SDS011;7543;53.148;8.234;2022-09-14T04:38:27;2.07;;;1.50;;
14903;SDS011;7543;53.148;8.234;2022-09-14T04:40:57;3.23;;;1.33;;
14903;SDS011;7543;53.148;8.234;2022-09-14T04:43:25;6.00;;;1.80;;
14903;SDS011;7543;53.148;8.234;2022-09-14T04:45:59;2.33;;;1.70;;
14903;SDS011;7543;53.148;8.234;2022-09-14T04:48:29;2.20;;;1.50;;
14903;SDS011;7543;53.148;8.234;2022-09-14T04:50:59;2.03;;;1.63;;
14903;SDS011;7543;53.148;8.234;2022-09-14T04:53:29;3.40;;;1.60;;
14903;SDS011;7543;53.148;8.234;2022-09-14T04:56:02;3.67;;;1.37;;
14903;SDS011;7543;53.148;8.234;2022-09-14T04:58:32;2.20;;;1.33;;
14903;SDS011;7543;53.148;8.234;2022-09-14T05:01:00;2.83;;;1.40;;
14903;SDS011;7543;53.148;8.234;2022-09-14T05:03:29;3.90;;;1.80;;
14903;SDS011;7543;53.148;8.234;2022-09-14T05:06:00;3.20;;;1.70;;
14903;SDS011;7543;53.148;8.234;2022-09-14T05:08:28;2.13;;;1.50;;
14903;SDS011;7543;53.148;8.234;2022-09-14T05:10:57;5.20;;;1.77;;
14903;SDS011;7543;53.148;8.234;2022-09-14T05:13:27;3.20;;;1.77;;
14903;SDS011;7543;53.148;8.234;2022-09-14T05:15:59;3.53;;;1.60;;
14903;SDS011;7543;53.148;8.234;2022-09-14T05:18:31;3.40;;;1.60;;
14903;SDS011;7543;53.148;8.234;2022-09-14T05:21:00;3.33;;;1.77;;
14903;SDS011;7543;53.148;8.234;2022-09-14T05:23:29;4.47;;;1.80;;
14903;SDS011;7543;53.148;8.234;2022-09-14T05:25:58;2.60;;;1.53;;
14903;SDS011;7543;53.148;8.234;2022-09-14T05:28:28;3.47;;;1.63;;
14903;SDS011;7543;53.148;8.234;2022-09-14T05:30:56;3.73;;;1.50;;
14903;SDS011;7543;53.148;8.234;2022-09-14T05:33:24;4.23;;;1.60;;
14903;SDS011;7543;53.148;8.234;2022-09-14T05:35:58;4.00;;;1.73;;
14903;SDS011;7543;53.148;8.234;2022-09-14T05:38:27;2.13;;;1.60;;
14903;SDS011;7543;53.148;8.234;2022-09-14T05:40:56;4.60;;;1.70;;
14903;SDS011;7543;53.148;8.234;2022-09-14T05:43:24;6.60;;;1.50;;
14903;SDS011;7543;53.148;8.234;2022-09-14T05:45:54;3.77;;;1.80;;
14903;SDS011;7543;53.148;8.234;2022-09-14T05:48:22;2.93;;;1.80;;
14903;SDS011;7543;53.148;8.234;2022-09-14T05:50:56;1.63;;;1.20;;
14903;SDS011;7543;53.148;8.234;2022-09-14T05:53:24;2.40;;;1.63;;
14903;SDS011;7543;53.148;8.234;2022-09-14T05:55:59;3.37;;;1.63;;
14903;SDS011;7543;53.148;8.234;2022-09-14T05:58:29;3.50;;;1.50;;
14903;SDS011;7543;53.148;8.234;2022-09-14T06:01:00;2.77;;;1.30;;
14903;SDS011;7543;53.148;8.234;2022-09-14T06:03:33;4.03;;;1.50;;
14903;SDS011;7543;53.148;8.234;2022-09-14T06:06:02;9.07;;;1.60;;
14903;SDS011;7543;53.148;8.234;2022-09-14T06:08:31;3.00;;;1.60;;
14903;SDS011;7543;53.148;8.234;2022-09-14T06:11:03;5.90;;;1.57;;
14903;SDS011;7543;53.148;8.234;2022-09-14T06:13:31;4.37;;;1.77;;
14903;SDS011;7543;53.148;8.234;2022-09-14T06:16:02;3.33;;;1.87;;
14903;SDS011;7543;53.148;8.234;2022-09-14T06:18:31;1.90;;;1.57;;
14903;SDS011;7543;53.148;8.234;2022-09-14T06:20:59;3.13;;;1.33;;
14903;SDS011;7543;53.148;8.234;2022-09-14T06:23:29;3.93;;;1.43;;
14903;SDS011;7543;53.148;8.234;2022-09-14T06:25:58;2.03;;;1.27;;
14903;SDS011;7543;53.148;8.234;2022-09-14T06:28:28;2.00;;;1.80;;
14903;SDS011;7543;53.148;8.234;2022-09-14T06:30:56;3.50;;;1.90;;
14903;SDS011;7543;53.148;8.234;2022-09-14T06:33:26;5.97;;;1.67;;
14903;SDS011;7543;53.148;8.234;2022-09-14T06:35:54;5.43;;;1.77;;
14903;SDS011;7543;53.148;8.234;2022-09-14T06:38:23;3.87;;;1.53;;
14903;SDS011;7543;53.148;8.234;2022-09-14T06:40:52;5.30;;;1.60;;
14903;SDS011;7543;53.148;8.234;2022-09-14T06:43:21;2.77;;;1.67;;
14903;SDS011;7543;53.148;8.234;2022-09-14T06:45:54;1.90;;;1.30;;
14903;SDS011;7543;53.148;8.234;2022-09-14T06:48:23;3.20;;;1.67;;
14903;SDS011;7543;53.148;8.234;2022-09-14T06:50:52;4.27;;;1.33;;
14903;SDS011;7543;53.148;8.234;2022-09-14T06:53:21;4.33;;;1.87;;
14903;SDS011;7543;53.148;8.234;2022-09-14T06:55:49;4.20;;;1.73;;
14903;SDS011;7543;53.148;8.234;2022-09-14T06:58:17;2.20;;;1.70;;
14903;SDS011;7543;53.148;8.234;2022-09-14T07:00:46;5.67;;;2.00;;
14903;SDS011;7543;53.148;8.234;2022-09-14T07:03:14;3.03;;;1.70;;
14903;SDS011;7543;53.148;8.234;2022-09-14T07:05:42;4.27;;;1.57;;
14903;SDS011;7543;53.148;8.234;2022-09-14T07:08:12;2.63;;;1.33;;
14903;SDS011;7543;53.148;8.234;2022-09-14T07:10:40;3.03;;;1.50;;
14903;SDS011;7543;53.148;8.234;2022-09-14T07:13:09;3.97;;;1.60;;
14903;SDS011;7543;53.148;8.234;2022-09-14T07:15:38;3.30;;;1.37;;
14903;SDS011;7543;53.148;8.234;2022-09-14T07:18:06;2.80;;;1.20;;
14903;SDS011;7543;53.148;8.234;2022-09-14T07:20:34;3.13;;;1.57;;
14903;SDS011;7543;53.148;8.234;2022-09-14T07:23:02;3.67;;;1.50;;
14903;SDS011;7543;53.148;8.234;2022-09-14T07:25:32;3.17;;;1.70;;
14903;SDS011;7543;53.148;8.234;2022-09-14T07:28:00;3.93;;;1.40;;
14903;SDS011;7543;53.148;8.234;2022-09-14T07:30:28;3.07;;;1.57;;
14903;SDS011;7543;53.148;8.234;2022-09-14T07:32:57;4.53;;;2.10;;
14903;SDS011;7543;53.148;8.234;2022-09-14T07:35:25;7.00;;;1.97;;
14903;SDS011;7543;53.148;8.234;2022-09-14T07:37:53;6.97;;;1.73;;
14903;SDS011;7543;53.148;8.234;2022-09-14T07:40:21;4.17;;;1.77;;
14903;SDS011;7543;53.148;8.234;2022-09-14T07:42:51;5.50;;;2.20;;
14903;SDS011;7543;53.148;8.234;2022-09-14T07:45:20;3.23;;;1.63;;
14903;SDS011;7543;53.148;8.234;2022-09-14T07:47:48;3.93;;;1.97;;
14903;SDS011;7543;53.148;8.234;2022-09-14T07:50:16;5.43;;;2.20;;
14903;SDS011;7543;53.148;8.234;2022-09-14T07:52:44;3.33;;;2.00;;
14903;SDS011;7543;53.148;8.234;2022-09-14T07:55:16;2.87;;;1.70;;
14903;SDS011;7543;53.148;8.234;2022-09-14T07:57:44;3.57;;;1.70;;
14903;SDS011;7543;53.148;8.234;2022-09-14T08:00:14;5.30;;;1.83;;
14903;SDS011;7543;53.148;8.234;2022-09-14T08:02:43;6.47;;;2.20;;
14903;SDS011;7543;53.148;8.234;2022-09-14T08:05:11;4.63;;;1.90;;
14903;SDS011;7543;53.148;8.234;2022-09-14T08:07:40;6.27;;;2.33;;
14903;SDS011;7543;53.148;8.234;2022-09-14T08:10:08;6.17;;;2.67;;
14903;SDS011;7543;53.148;8.234;2022-09-14T08:12:36;6.27;;;2.93;;
14903;SDS011;7543;53.148;8.234;2022-09-14T08:15:05;6.03;;;2.53;;
14903;SDS011;7543;53.148;8.234;2022-09-14T08:17:35;6.93;;;2.30;;
14903;SDS011;7543;53.148;8.234;2022-09-14T08:20:04;3.93;;;2.20;;
14903;SDS011;7543;53.148;8.234;2022-09-14T08:22:33;7.23;;;2.53;;
14903;SDS011;7543;53.148;8.234;2022-09-14T08:25:01;5.63;;;2.77;;
14903;SDS011;7543;53.148;8.234;2022-09-14T08:27:30;5.20;;;2.70;;
14903;SDS011;7543;53.148;8.234;2022-09-14T08:29:58;3.33;;;2.53;;
14903;SDS011;7543;53.148;8.234;2022-09-14T08:32:26;4.67;;;1.77;;
14903;SDS011;7543;53.148;8.234;2022-09-14T08:34:55;5.00;;;2.27;;
14903;SDS011;7543;53.148;8.234;2022-09-14T08:37:23;2.70;;;1.90;;
14903;SDS011;7543;53.148;8.234;2022-09-14T08:39:52;5.53;;;2.17;;
14903;SDS011;7543;53.148;8.234;2022-09-14T08:42:20;3.73;;;1.63;;
14903;SDS011;7543;53.148;8.234;2022-09-14T08:44:51;5.87;;;2.10;;
14903;SDS011;7543;53.148;8.234;2022-09-14T08:47:22;3.83;;;1.80;;
14903;SDS011;7543;53.148;8.234;2022-09-14T08:49:58;3.30;;;1.57;;
14903;SDS011;7543;53.148;8.234;2022-09-14T08:52:32;4.83;;;1.43;;
14903;SDS011;7543;53.148;8.234;2022-09-14T08:55:08;3.30;;;1.60;;
14903;SDS011;7543;53.148;8.234;2022-09-14T08:57:45;2.07;;;1.50;;
14903;SDS011;7543;53.148;8.234;2022-09-14T09:00:16;6.07;;;1.53;;
14903;SDS011;7543;53.148;8.234;2022-09-14T09:02:58;4.43;;;1.73;;
14903;SDS011;7543;53.148;8.234;2022-09-14T09:05:38;3.20;;;0.70;;
14903;SDS011;7543;53.148;8.234;2022-09-14T09:08:12;2.03;;;1.00;;
14903;SDS011;7543;53.148;8.234;2022-09-14T09:10:44;2.00;;;1.10;;
14903;SDS011;7543;53.148;8.234;2022-09-14T09:13:13;4.53;;;1.13;;
14903;SDS011;7543;53.148;8.234;2022-09-14T09:15:45;1.73;;;0.93;;
14903;SDS011;7543;53.148;8.234;2022-09-14T09:18:17;5.23;;;1.00;;
14903;SDS011;7543;53.148;8.234;2022-09-14T09:20:49;2.93;;;0.77;;
14903;SDS011;7543;53.148;8.234;2022-09-14T09:23:19;5.13;;;1.03;;
14903;SDS011;7543;53.148;8.234;2022-09-14T09:25:50;2.03;;;1.10;;
14903;SDS011;7543;53.148;8.234;2022-09-14T09:28:20;2.23;;;0.67;;
14903;SDS011;7543;53.148;8.234;2022-09-14T09:30:49;1.17;;;0.60;;
14903;SDS011;7543;53.148;8.234;2022-09-14T09:33:20;1.97;;;0.77;;
14903;SDS011;7543;53.148;8.234;2022-09-14T09:36:13;1.67;;;0.80;;
14903;SDS011;7543;53.148;8.234;2022-09-14T09:38:42;1.77;;;0.80;;
14903;SDS011;7543;53.148;8.234;2022-09-14T09:41:11;2.10;;;0.70;;
14903;SDS011;7543;53.148;8.234;2022-09-14T09:43:58;3.13;;;1.03;;
14903;SDS011;7543;53.148;8.234;2022-09-14T09:46:28;5.23;;;1.30;;
14903;SDS011;7543;53.148;8.234;2022-09-14T09:48:57;3.23;;;1.00;;
14903;SDS011;7543;53.148;8.234;2022-09-14T09:51:28;0.87;;;0.50;;
14903;SDS011;7543;53.148;8.234;2022-09-14T09:54:01;4.00;;;0.70;;
14903;SDS011;7543;53.148;8.234;2022-09-14T09:56:33;2.77;;;0.70;;
14903;SDS011;7543;53.148;8.234;2022-09-14T09:59:06;3.70;;;1.00;;
14903;SDS011;7543;53.148;8.234;2022-09-14T10:01:48;1.30;;;0.63;;
14903;SDS011;7543;53.148;8.234;2022-09-14T10:04:18;0.30;;;0.30;;
14903;SDS011;7543;53.148;8.234;2022-09-14T10:06:50;1.73;;;0.50;;
14903;SDS011;7543;53.148;8.234;2022-09-14T10:09:20;3.53;;;0.60;;
14903;SDS011;7543;53.148;8.234;2022-09-14T10:11:54;0.97;;;0.60;;
14903;SDS011;7543;53.148;8.234;2022-09-14T10:14:25;2.30;;;0.50;;
14903;SDS011;7543;53.148;8.234;2022-09-14T10:17:03;1.80;;;0.73;;
14903;SDS011;7543;53.148;8.234;2022-09-14T10:19:33;2.53;;;0.60;;
14903;SDS011;7543;53.148;8.234;2022-09-14T10:22:04;3.90;;;0.90;;
14903;SDS011;7543;53.148;8.234;2022-09-14T10:24:50;2.97;;;0.57;;
14903;SDS011;7543;53.148;8.234;2022-09-14T10:27:30;2.00;;;0.70;;
14903;SDS011;7543;53.148;8.234;2022-09-14T10:30:01;7.00;;;0.60;;
14903;SDS011;7543;53.148;8.234;2022-09-14T10:32:32;1.80;;;0.67;;
14903;SDS011;7543;53.148;8.234;2022-09-14T10:35:01;1.47;;;0.63;;
14903;SDS011;7543;53.148;8.234;2022-09-14T10:37:34;6.30;;;0.80;;
14903;SDS011;7543;53.148;8.234;2022-09-14T10:40:09;2.63;;;0.70;;
14903;SDS011;7543;53.148;8.234;2022-09-14T10:42:46;1.90;;;0.70;;
14903;SDS011;7543;53.148;8.234;2022-09-14T10:45:21;1.70;;;0.40;;
14903;SDS011;7543;53.148;8.234;2022-09-14T10:48:11;0.63;;;0.40;;
14903;SDS011;7543;53.148;8.234;2022-09-14T10:50:48;3.20;;;0.40;;
14903;SDS011;7543;53.148;8.234;2022-09-14T10:53:30;1.77;;;0.60;;
14903;SDS011;7543;53.148;8.234;2022-09-14T10:56:03;3.67;;;0.60;;
14903;SDS011;7543;53.148;8.234;2022-09-14T10:58:37;1.70;;;0.60;;
14903;SDS011;7543;53.148;8.234;2022-09-14T11:01:25;1.63;;;0.70;;
14903;SDS011;7543;53.148;8.234;2022-09-14T11:04:01;2.57;;;0.83;;
14903;SDS011;7543;53.148;8.234;2022-09-14T11:06:44;1.00;;;0.60;;
14903;SDS011;7543;53.148;8.234;2022-09-14T11:09:22;2.10;;;0.50;;
14903;SDS011;7543;53.148;8.234;2022-09-14T11:11:56;2.63;;;0.67;;
14903;SDS011;7543;53.148;8.234;2022-09-14T11:14:33;2.37;;;0.60;;
14903;SDS011;7543;53.148;8.234;2022-09-14T11:17:22;1.90;;;0.73;;
14903;SDS011;7543;53.148;8.234;2022-09-14T11:20:03;3.60;;;0.60;;
14903;SDS011;7543;53.148;8.234;2022-09-14T11:22:37;2.93;;;0.50;;
14903;SDS011;7543;53.148;8.234;2022-09-14T11:25:12;1.53;;;0.47;;
14903;SDS011;7543;53.148;8.234;2022-09-14T11:27:43;2.53;;;0.70;;
14903;SDS011;7543;53.148;8.234;2022-09-14T11:30:13;4.00;;;0.80;;
14903;SDS011;7543;53.148;8.234;2022-09-14T11:32:43;2.47;;;0.50;;
14903;SDS011;7543;53.148;8.234;2022-09-14T11:35:16;2.07;;;0.83;;
14903;SDS011;7543;53.148;8.234;2022-09-14T11:37:46;3.97;;;0.73;;
14903;SDS011;7543;53.148;8.234;2022-09-14T11:40:19;1.80;;;0.77;;
14903;SDS011;7543;53.148;8.234;2022-09-14T11:42:51;1.03;;;0.63;;
14903;SDS011;7543;53.148;8.234;2022-09-14T11:45:24;1.57;;;0.60;;
14903;SDS011;7543;53.148;8.234;2022-09-14T11:47:58;2.23;;;0.60;;
14903;SDS011;7543;53.148;8.234;2022-09-14T11:50:29;4.10;;;0.67;;
14903;SDS011;7543;53.148;8.234;2022-09-14T11:53:01;1.47;;;0.60;;
14903;SDS011;7543;53.148;8.234;2022-09-14T11:55:32;2.17;;;0.53;;
14903;SDS011;7543;53.148;8.234;2022-09-14T11:58:02;1.40;;;0.50;;
14903;SDS011;7543;53.148;8.234;2022-09-14T12:00:43;1.57;;;0.60;;
14903;SDS011;7543;53.148;8.234;2022-09-14T12:03:15;2.93;;;0.67;;
14903;SDS011;7543;53.148;8.234;2022-09-14T12:05:44;0.90;;;0.67;;
14903;SDS011;7543;53.148;8.234;2022-09-14T12:11:23;1.80;;;0.70;;
14903;SDS011;7543;53.148;8.234;2022-09-14T12:17:02;2.13;;;0.60;;
14903;SDS011;7543;53.148;8.234;2022-09-14T12:19:40;1.43;;;0.50;;
14903;SDS011;7543;53.148;8.234;2022-09-14T12:22:17;3.10;;;1.00;;
14903;SDS011;7543;53.148;8.234;2022-09-14T12:24:55;2.37;;;0.70;;
14903;SDS011;7543;53.148;8.234;2022-09-14T12:27:27;2.27;;;0.60;;
14903;SDS011;7543;53.148;8.234;2022-09-14T12:29:56;2.57;;;0.80;;
14903;SDS011;7543;53.148;8.234;2022-09-14T12:32:26;5.13;;;0.87;;
14903;SDS011;7543;53.148;8.234;2022-09-14T12:47:03;1.60;;;0.70;;
14903;SDS011;7543;53.148;8.234;2022-09-14T12:50:15;3.90;;;0.70;;
14903;SDS011;7543;53.148;8.234;2022-09-14T12:52:47;1.40;;;0.80;;
14903;SDS011;7543;53.148;8.234;2022-09-14T12:55:25;1.80;;;0.53;;
14903;SDS011;7543;53.148;8.234;2022-09-14T12:58:03;2.40;;;0.90;;
14903;SDS011;7543;53.148;8.234;2022-09-14T13:00:45;3.80;;;1.10;;
14903;SDS011;7543;53.148;8.234;2022-09-14T13:03:35;3.27;;;0.73;;
14903;SDS011;7543;53.148;8.234;2022-09-14T13:06:16;2.90;;;0.63;;
14903;SDS011;7543;53.148;8.234;2022-09-14T13:08:46;4.87;;;0.90;;
14903;SDS011;7543;53.148;8.234;2022-09-14T13:11:19;2.37;;;0.57;;
14903;SDS011;7543;53.148;8.234;2022-09-14T13:13:48;4.13;;;0.83;;
14903;SDS011;7543;53.148;8.234;2022-09-14T13:16:20;2.10;;;0.77;;
14903;SDS011;7543;53.148;8.234;2022-09-14T13:18:58;1.30;;;0.70;;
14903;SDS011;7543;53.148;8.234;2022-09-14T13:21:27;2.70;;;0.50;;
14903;SDS011;7543;53.148;8.234;2022-09-14T13:23:55;3.37;;;0.90;;
14903;SDS011;7543;53.148;8.234;2022-09-14T13:26:24;1.60;;;0.70;;
14903;SDS011;7543;53.148;8.234;2022-09-14T13:28:55;1.80;;;0.80;;
14903;SDS011;7543;53.148;8.234;2022-09-14T13:31:29;4.73;;;1.20;;
14903;SDS011;7543;53.148;8.234;2022-09-14T13:33:58;2.55;;;0.85;;
14903;SDS011;7543;53.148;8.234;2022-09-14T13:36:29;0.93;;;0.50;;
14903;SDS011;7543;53.148;8.234;2022-09-14T13:38:58;3.73;;;1.00;;
14903;SDS011;7543;53.148;8.234;2022-09-14T13:41:29;2.10;;;0.70;;
14903;SDS011;7543;53.148;8.234;2022-09-14T13:43:58;2.23;;;0.60;;
14903;SDS011;7543;53.148;8.234;2022-09-14T13:46:27;2.50;;;0.90;;
14903;SDS011;7543;53.148;8.234;2022-09-14T13:48:56;0.93;;;0.60;;
14903;SDS011;7543;53.148;8.234;2022-09-14T13:51:24;2.97;;;1.10;;
14903;SDS011;7543;53.148;8.234;2022-09-14T13:53:54;1.67;;;0.70;;
14903;SDS011;7543;53.148;8.234;2022-09-14T13:56:25;2.10;;;0.77;;
14903;SDS011;7543;53.148;8.234;2022-09-14T13:59:12;2.07;;;0.90;;
14903;SDS011;7543;53.148;8.234;2022-09-14T14:01:48;2.77;;;0.80;;
14903;SDS011;7543;53.148;8.234;2022-09-14T14:04:24;7.80;;;0.63;;
14903;SDS011;7543;53.148;8.234;2022-09-14T14:07:03;2.23;;;0.90;;
14903;SDS011;7543;53.148;8.234;2022-09-14T14:09:38;3.63;;;1.23;;
14903;SDS011;7543;53.148;8.234;2022-09-14T14:12:09;2.23;;;0.93;;
14903;SDS011;7543;53.148;8.234;2022-09-14T14:14:38;1.53;;;0.87;;
14903;SDS011;7543;53.148;8.234;2022-09-14T14:20:28;3.73;;;0.57;;
14903;SDS011;7543;53.148;8.234;2022-09-14T14:22:59;2.27;;;1.07;;
14903;SDS011;7543;53.148;8.234;2022-09-14T14:25:31;4.43;;;1.23;;
14903;SDS011;7543;53.148;8.234;2022-09-14T14:28:01;2.70;;;0.97;;
14903;SDS011;7543;53.148;8.234;2022-09-14T14:30:32;2.60;;;0.82;;
14903;SDS011;7543;53.148;8.234;2022-09-14T14:33:10;1.42;;;0.70;;
14903;SDS011;7543;53.148;8.234;2022-09-14T14:35:39;2.60;;;0.63;;
14903;SDS011;7543;53.148;8.234;2022-09-14T14:38:08;2.43;;;0.70;;
14903;SDS011;7543;53.148;8.234;2022-09-14T14:40:36;3.27;;;0.80;;
14903;SDS011;7543;53.148;8.234;2022-09-14T14:43:05;0.73;;;0.50;;
14903;SDS011;7543;53.148;8.234;2022-09-14T14:45:34;1.73;;;0.90;;
14903;SDS011;7543;53.148;8.234;2022-09-14T14:48:03;3.37;;;0.80;;
14903;SDS011;7543;53.148;8.234;2022-09-14T14:50:33;4.30;;;0.70;;
14903;SDS011;7543;53.148;8.234;2022-09-14T14:53:01;3.13;;;0.80;;
14903;SDS011;7543;53.148;8.234;2022-09-14T14:55:31;1.17;;;0.60;;
14903;SDS011;7543;53.148;8.234;2022-09-14T14:58:02;2.07;;;0.90;;
14903;SDS011;7543;53.148;8.234;2022-09-14T15:00:34;4.50;;;0.83;;
14903;SDS011;7543;53.148;8.234;2022-09-14T15:03:03;2.50;;;0.97;;
14903;SDS011;7543;53.148;8.234;2022-09-14T15:05:32;6.00;;;0.80;;
14903;SDS011;7543;53.148;8.234;2022-09-14T15:08:00;3.83;;;0.77;;
14903;SDS011;7543;53.148;8.234;2022-09-14T15:10:29;1.73;;;0.90;;
14903;SDS011;7543;53.148;8.234;2022-09-14T15:12:57;3.03;;;0.80;;
14903;SDS011;7543;53.148;8.234;2022-09-14T15:15:25;3.63;;;1.00;;
14903;SDS011;7543;53.148;8.234;2022-09-14T15:17:54;6.07;;;1.27;;
14903;SDS011;7543;53.148;8.234;2022-09-14T15:20:22;2.50;;;0.60;;
14903;SDS011;7543;53.148;8.234;2022-09-14T15:22:51;5.50;;;0.90;;
14903;SDS011;7543;53.148;8.234;2022-09-14T15:25:20;2.03;;;0.73;;
14903;SDS011;7543;53.148;8.234;2022-09-14T15:27:48;7.87;;;1.10;;
14903;SDS011;7543;53.148;8.234;2022-09-14T15:30:17;1.10;;;0.77;;
14903;SDS011;7543;53.148;8.234;2022-09-14T15:32:45;3.50;;;0.97;;
14903;SDS011;7543;53.148;8.234;2022-09-14T15:35:13;3.20;;;0.73;;
14903;SDS011;7543;53.148;8.234;2022-09-14T15:37:41;1.50;;;0.77;;
14903;SDS011;7543;53.148;8.234;2022-09-14T15:40:11;1.73;;;0.80;;
14903;SDS011;7543;53.148;8.234;2022-09-14T15:42:39;2.03;;;0.73;;
14903;SDS011;7543;53.148;8.234;2022-09-14T15:45:08;3.10;;;0.87;;
14903;SDS011;7543;53.148;8.234;2022-09-14T15:47:36;2.80;;;0.80;;